createdAt,value
2019-02-14T00:00:12.123Z,33.40
2019-02-14T00:02:40.594Z,33.33
2019-02-14T00:05:16.132Z,33.63
2019-02-14T00:07:39.343Z,33.47
2019-02-14T00:10:09.326Z,32.50
2019-02-14T00:12:37.797Z,32.20
2019-02-14T00:15:13.822Z,31.50
2019-02-14T00:17:42.269Z,32.47
2019-02-14T00:20:10.779Z,31.30
2019-02-14T00:22:39.237Z,32.30
2019-02-14T00:25:07.857Z,31.27
2019-02-14T00:27:36.376Z,30.67
2019-02-14T00:30:06.638Z,31.73
2019-02-14T00:32:35.120Z,31.23
2019-02-14T00:35:03.723Z,31.13
2019-02-14T00:37:32.170Z,31.30
2019-02-14T00:40:00.607Z,30.87
2019-02-14T00:42:29.074Z,31.80
2019-02-14T00:44:57.509Z,31.47
2019-02-14T00:47:25.968Z,30.27
2019-02-14T00:49:54.399Z,31.07
2019-02-14T00:52:22.861Z,29.80
2019-02-14T00:54:51.354Z,29.53
2019-02-14T00:57:19.873Z,29.10
2019-02-14T00:59:48.312Z,28.50
2019-02-14T01:02:16.761Z,30.30
2019-02-14T01:04:45.201Z,29.43
2019-02-14T01:07:13.654Z,31.77
2019-02-14T01:09:42.126Z,27.97
2019-02-14T01:12:10.843Z,29.10
2019-02-14T01:14:39.284Z,29.80
2019-02-14T01:17:07.775Z,29.50
2019-02-14T01:19:36.241Z,30.30
2019-02-14T01:22:04.700Z,29.63
2019-02-14T01:24:33.135Z,30.17
2019-02-14T01:27:01.602Z,28.70
2019-02-14T01:29:30.045Z,28.63
2019-02-14T01:31:58.657Z,28.67
2019-02-14T01:34:27.188Z,28.10
2019-02-14T01:36:55.651Z,29.30
2019-02-14T01:39:24.093Z,29.07
2019-02-14T01:41:52.547Z,26.63
2019-02-14T01:44:20.988Z,28.07
2019-02-14T01:46:49.451Z,27.63
2019-02-14T01:49:17.883Z,27.70
2019-02-14T01:51:46.328Z,26.97
2019-02-14T01:54:14.826Z,27.30
2019-02-14T01:56:43.274Z,26.93
2019-02-14T01:59:11.726Z,27.00
2019-02-14T02:01:40.167Z,26.00
2019-02-14T02:04:08.617Z,26.10
2019-02-14T02:06:37.077Z,24.50
2019-02-14T02:09:07.071Z,26.27
2019-02-14T02:11:35.767Z,25.40
2019-02-14T02:14:04.404Z,24.67
2019-02-14T02:16:32.831Z,24.13
2019-02-14T02:19:01.297Z,23.97
2019-02-14T02:21:29.725Z,24.77
2019-02-14T02:23:58.443Z,23.80
2019-02-14T02:26:26.881Z,23.33
2019-02-14T02:28:55.342Z,22.67
2019-02-14T02:31:23.775Z,23.00
2019-02-14T02:33:52.227Z,22.50
2019-02-14T02:36:20.668Z,23.37
2019-02-14T02:38:49.122Z,22.10
2019-02-14T02:41:17.572Z,22.63
2019-02-14T02:43:46.080Z,21.97
2019-02-14T02:46:14.516Z,22.30
2019-02-14T02:48:43.046Z,22.20
2019-02-14T02:51:11.477Z,20.97
2019-02-14T02:53:39.988Z,21.87
2019-02-14T02:56:08.450Z,21.43
2019-02-14T02:58:36.905Z,21.37
2019-02-14T03:01:05.364Z,20.73
2019-02-14T03:03:33.820Z,20.37
2019-02-14T03:06:10.236Z,20.97
2019-02-14T03:08:32.437Z,19.53
2019-02-14T03:11:00.879Z,19.57
2019-02-14T03:13:29.416Z,20.00
2019-02-14T03:15:57.851Z,20.03
2019-02-14T03:18:26.322Z,18.57
2019-02-14T03:20:54.762Z,18.23
2019-02-14T03:23:23.215Z,19.37
2019-02-14T03:25:51.647Z,18.70
2019-02-14T03:28:20.105Z,18.17
2019-02-14T03:30:48.542Z,19.23
2019-02-14T03:33:17.063Z,18.97
2019-02-14T03:35:45.497Z,17.60
2019-02-14T03:38:13.968Z,18.83
2019-02-14T03:40:42.422Z,18.17
2019-02-14T03:43:11.003Z,18.43
2019-02-14T03:45:39.489Z,17.53
2019-02-14T03:48:07.972Z,17.10
2019-02-14T03:50:36.464Z,17.37
2019-02-14T03:53:04.909Z,18.23
2019-02-14T03:55:33.351Z,18.07
2019-02-14T03:58:01.857Z,17.90
2019-02-14T04:00:30.391Z,16.80
2019-02-14T04:02:58.863Z,17.27
2019-02-14T04:05:27.317Z,18.20
2019-02-14T04:07:55.743Z,16.73
2019-02-14T04:10:24.201Z,18.67
2019-02-14T04:12:52.623Z,17.73
2019-02-14T04:15:21.076Z,17.63
2019-02-14T04:17:49.571Z,16.20
2019-02-14T04:20:18.021Z,17.90
2019-02-14T04:22:46.457Z,17.33
2019-02-14T04:25:14.912Z,17.27
2019-02-14T04:27:43.349Z,16.47
2019-02-14T04:30:13.141Z,17.73
2019-02-14T04:32:41.574Z,16.77
2019-02-14T04:35:10.056Z,16.80
2019-02-14T04:37:38.492Z,18.37
2019-02-14T04:40:13.479Z,17.50
2019-02-14T04:42:41.932Z,16.63
2019-02-14T04:45:12.318Z,16.80
2019-02-14T04:47:40.808Z,16.67
2019-02-14T04:50:10.818Z,16.47
2019-02-14T04:52:39.243Z,15.60
2019-02-14T04:55:09.752Z,15.93
2019-02-14T04:57:38.194Z,18.33
2019-02-14T05:00:12.059Z,18.60
2019-02-14T05:02:40.496Z,17.47
2019-02-14T05:05:09.699Z,17.57
2019-02-14T05:07:38.252Z,17.30
2019-02-14T05:10:13.352Z,16.60
2019-02-14T05:12:41.791Z,16.20
2019-02-14T05:15:10.896Z,16.50
2019-02-14T05:17:39.348Z,15.90
2019-02-14T05:20:10.602Z,15.17
2019-02-14T05:22:39.046Z,15.40
2019-02-14T05:25:09.306Z,15.57
2019-02-14T05:27:37.822Z,15.90
2019-02-14T05:30:14.302Z,15.97
2019-02-14T05:32:42.733Z,15.97
2019-02-14T05:35:11.213Z,15.23
2019-02-14T05:37:39.730Z,15.23
2019-02-14T05:40:11.576Z,15.53
2019-02-14T05:42:40.028Z,15.77
2019-02-14T05:45:14.626Z,16.97
2019-02-14T05:47:43.051Z,15.17
2019-02-14T05:50:12.870Z,16.73
2019-02-14T05:52:41.301Z,15.77
2019-02-14T05:55:11.291Z,16.10
2019-02-14T05:57:39.853Z,15.73
2019-02-14T06:00:17.200Z,15.50
2019-02-14T06:02:45.653Z,15.90
2019-02-14T06:05:14.098Z,16.77
2019-02-14T06:07:42.614Z,16.80
2019-02-14T06:10:11.802Z,15.33
2019-02-14T06:12:40.254Z,15.80
2019-02-14T06:15:11.499Z,15.73
2019-02-14T06:17:39.946Z,15.43
2019-02-14T06:20:12.226Z,16.43
2019-02-14T06:22:40.691Z,15.73
2019-02-14T06:25:12.935Z,16.37
2019-02-14T06:27:41.570Z,15.90
2019-02-14T06:30:14.497Z,16.43
2019-02-14T06:32:42.964Z,16.50
2019-02-14T06:35:11.825Z,15.53
2019-02-14T06:37:40.296Z,16.10
2019-02-14T06:40:11.132Z,15.50
2019-02-14T06:42:39.591Z,16.57
2019-02-14T06:45:11.022Z,16.30
2019-02-14T06:47:39.494Z,17.17
2019-02-14T06:50:08.962Z,15.77
2019-02-14T06:52:37.419Z,17.40
2019-02-14T06:55:06.619Z,16.57
2019-02-14T06:57:35.087Z,16.37
2019-02-14T07:00:04.492Z,17.47
2019-02-14T07:02:32.946Z,18.23
2019-02-14T07:05:01.399Z,16.57
2019-02-14T07:07:29.883Z,18.47
2019-02-14T07:09:58.322Z,17.33
2019-02-14T07:12:26.793Z,16.67
2019-02-14T07:14:55.229Z,17.13
2019-02-14T07:17:23.684Z,17.33
2019-02-14T07:19:52.121Z,16.23
2019-02-14T07:22:20.577Z,17.30
2019-02-14T07:24:49.027Z,16.07
2019-02-14T07:27:17.486Z,15.67
2019-02-14T07:29:45.924Z,17.20
2019-02-14T07:32:14.407Z,17.57
2019-02-14T07:34:42.910Z,16.57
2019-02-14T07:37:11.368Z,17.20
2019-02-14T07:39:39.805Z,15.97
2019-02-14T07:42:08.264Z,16.93
2019-02-14T07:44:36.703Z,16.37
2019-02-14T07:47:05.162Z,17.07
2019-02-14T07:49:33.614Z,16.00
2019-02-14T07:52:02.136Z,17.43
2019-02-14T07:54:30.562Z,15.97
2019-02-14T07:56:59.017Z,17.00
2019-02-14T07:59:27.465Z,16.67
2019-02-14T08:01:55.969Z,17.73
2019-02-14T08:04:24.407Z,16.63
2019-02-14T08:06:52.871Z,16.50
2019-02-14T08:09:21.298Z,16.30
2019-02-14T08:11:49.787Z,16.97
2019-02-14T08:14:18.304Z,16.37
2019-02-14T08:16:46.829Z,16.50
2019-02-14T08:19:15.249Z,16.47
2019-02-14T08:21:43.719Z,16.23
2019-02-14T08:24:12.162Z,17.43
2019-02-14T08:26:40.623Z,16.27
2019-02-14T08:29:09.067Z,16.93
2019-02-14T08:31:37.526Z,16.67
2019-02-14T08:34:05.999Z,17.30
2019-02-14T08:36:34.422Z,17.70
2019-02-14T08:39:04.651Z,16.53
2019-02-14T08:41:33.081Z,17.17
2019-02-14T08:44:01.537Z,17.30
2019-02-14T08:46:29.982Z,16.07
2019-02-14T08:48:58.438Z,17.67
2019-02-14T08:51:26.884Z,16.87
2019-02-14T08:53:55.335Z,16.23
2019-02-14T08:56:23.780Z,16.20
2019-02-14T08:58:52.237Z,16.00
2019-02-14T09:01:20.702Z,16.37
2019-02-14T09:03:49.207Z,16.90
2019-02-14T09:06:17.655Z,16.50
2019-02-14T09:08:46.102Z,16.87
2019-02-14T09:11:14.548Z,16.97
2019-02-14T09:13:43.001Z,15.97
2019-02-14T09:16:11.441Z,16.13
2019-02-14T09:18:39.882Z,15.27
2019-02-14T09:21:08.326Z,15.77
2019-02-14T09:23:36.794Z,16.57
2019-02-14T09:26:05.242Z,16.17
2019-02-14T09:28:33.758Z,15.30
2019-02-14T09:31:02.193Z,15.77
2019-02-14T09:33:30.646Z,15.00
2019-02-14T09:35:59.077Z,15.40
2019-02-14T09:38:27.534Z,15.20
2019-02-14T09:40:55.986Z,16.10
2019-02-14T09:43:29.808Z,15.73
2019-02-14T09:45:54.602Z,14.73
2019-02-14T09:48:23.059Z,14.67
2019-02-14T09:50:51.497Z,15.23
2019-02-14T09:53:19.953Z,15.30
2019-02-14T09:55:48.394Z,15.57
2019-02-14T09:58:16.850Z,14.30
2019-02-14T10:00:45.298Z,16.97
2019-02-14T10:03:13.815Z,15.53
2019-02-14T10:05:42.259Z,16.17
2019-02-14T10:08:12.826Z,15.00
2019-02-14T10:10:40.872Z,15.63
2019-02-14T10:13:09.333Z,15.63
2019-02-14T10:15:37.758Z,17.63
2019-02-14T10:18:06.214Z,17.40
2019-02-14T10:20:34.679Z,17.03
2019-02-14T10:23:03.119Z,17.03
2019-02-14T10:25:31.541Z,16.40
2019-02-14T10:28:00.001Z,17.30
2019-02-14T10:30:28.438Z,15.90
2019-02-14T10:32:56.882Z,14.70
2019-02-14T10:35:25.316Z,14.37
2019-02-14T10:37:53.775Z,15.40
2019-02-14T10:40:22.216Z,14.50
2019-02-14T10:42:50.675Z,12.90
2019-02-14T10:45:23.036Z,14.30
2019-02-14T10:47:51.498Z,15.07
2019-02-14T10:50:19.929Z,16.47
2019-02-14T10:52:48.414Z,15.40
2019-02-14T10:55:17.023Z,16.43
2019-02-14T10:57:45.452Z,13.70
2019-02-14T11:00:17.377Z,12.60
2019-02-14T11:02:45.987Z,13.67
2019-02-14T11:05:15.293Z,12.70
2019-02-14T11:07:43.753Z,9.47
2019-02-14T11:10:13.706Z,10.83
2019-02-14T11:12:42.142Z,10.47
2019-02-14T11:15:21.802Z,9.73
2019-02-14T11:17:50.234Z,10.20
2019-02-14T11:20:18.691Z,11.37
2019-02-14T11:22:48.828Z,11.07
2019-02-14T11:25:34.379Z,11.90
2019-02-14T11:28:02.812Z,11.57
2019-02-14T11:30:31.269Z,10.80
2019-02-14T11:32:59.724Z,10.77
2019-02-14T11:35:28.182Z,10.13
2019-02-14T11:37:56.617Z,12.47
2019-02-14T11:40:25.078Z,10.07
2019-02-14T11:42:53.521Z,11.23
2019-02-14T11:45:25.056Z,11.70
2019-02-14T11:47:53.482Z,12.67
2019-02-14T11:50:21.937Z,12.53
2019-02-14T11:52:50.385Z,12.43
2019-02-14T11:55:18.844Z,13.10
2019-02-14T11:57:47.281Z,14.33
2019-02-14T12:00:19.121Z,13.73
2019-02-14T12:02:55.022Z,13.57
2019-02-14T12:05:17.737Z,13.30
2019-02-14T12:07:46.170Z,14.10
2019-02-14T12:10:14.898Z,13.50
2019-02-14T12:12:43.325Z,12.90
2019-02-14T12:15:13.222Z,13.10
2019-02-14T12:17:41.685Z,12.70
2019-02-14T12:20:12.808Z,14.10
2019-02-14T12:22:46.643Z,12.40
2019-02-14T12:25:17.358Z,11.50
2019-02-14T12:27:45.790Z,11.37
2019-02-14T12:30:15.211Z,12.13
2019-02-14T12:32:43.653Z,11.57
2019-02-14T12:35:12.198Z,11.20
2019-02-14T12:37:40.638Z,11.97
2019-02-14T12:40:11.160Z,12.00
2019-02-14T12:42:39.636Z,12.13
2019-02-14T12:45:21.487Z,11.63
2019-02-14T12:47:46.887Z,11.87
2019-02-14T12:50:15.515Z,12.37
2019-02-14T12:52:43.978Z,11.83
2019-02-14T12:55:12.436Z,11.20
2019-02-14T12:57:40.886Z,11.73
2019-02-14T13:00:12.413Z,12.10
2019-02-14T13:02:40.854Z,12.33
2019-02-14T13:05:09.491Z,12.07
2019-02-14T13:07:37.922Z,12.20
2019-02-14T13:10:11.650Z,12.70
2019-02-14T13:12:40.102Z,12.07
2019-02-14T13:15:13.856Z,12.17
2019-02-14T13:17:42.335Z,11.50
2019-02-14T13:20:10.839Z,12.20
2019-02-14T13:22:39.287Z,12.57
2019-02-14T13:25:10.167Z,12.60
2019-02-14T13:27:38.628Z,11.80
2019-02-14T13:30:10.254Z,13.03
2019-02-14T13:32:38.699Z,11.37
2019-02-14T13:35:07.246Z,11.90
2019-02-14T13:37:35.749Z,12.97
2019-02-14T13:40:05.123Z,12.47
2019-02-14T13:42:33.589Z,12.43
2019-02-14T13:45:02.041Z,11.50
2019-02-14T13:47:30.579Z,12.00
2019-02-14T13:49:59.023Z,12.27
2019-02-14T13:52:27.483Z,13.73
2019-02-14T13:54:55.923Z,12.87
2019-02-14T13:57:24.450Z,14.03
2019-02-14T13:59:52.908Z,13.40
2019-02-14T14:02:21.370Z,13.33
2019-02-14T14:04:49.808Z,13.33
2019-02-14T14:07:18.357Z,13.43
2019-02-14T14:09:46.870Z,13.17
2019-02-14T14:12:15.330Z,12.17
2019-02-14T14:14:43.774Z,13.50
2019-02-14T14:17:12.238Z,12.03
2019-02-14T14:19:40.673Z,12.67
2019-02-14T14:22:09.145Z,12.87
2019-02-14T14:24:37.575Z,13.67
2019-02-14T14:27:06.156Z,13.77
2019-02-14T14:29:34.630Z,15.47
2019-02-14T14:32:03.914Z,14.70
2019-02-14T14:34:32.357Z,14.77
2019-02-14T14:37:00.810Z,14.07
2019-02-14T14:39:29.262Z,14.50
2019-02-14T14:41:57.731Z,14.00
2019-02-14T14:44:30.509Z,13.87
2019-02-14T14:46:59.017Z,14.13
2019-02-14T14:49:27.452Z,14.13
2019-02-14T14:51:55.949Z,12.33
2019-02-14T14:54:24.438Z,12.50
2019-02-14T14:56:52.903Z,13.57
2019-02-14T14:59:21.350Z,12.27
2019-02-14T15:01:49.822Z,13.33
2019-02-14T15:04:18.302Z,11.70
2019-02-14T15:06:46.776Z,11.50
2019-02-14T15:09:15.273Z,12.50
2019-02-14T15:11:43.779Z,13.10
2019-02-14T15:14:12.235Z,12.43
2019-02-14T15:16:40.685Z,13.40
2019-02-14T15:19:09.128Z,12.07
2019-02-14T15:21:37.583Z,12.73
2019-02-14T15:24:06.058Z,12.63
2019-02-14T15:26:34.499Z,13.07
2019-02-14T15:29:02.970Z,12.67
2019-02-14T15:31:31.413Z,13.43
2019-02-14T15:33:59.895Z,13.07
2019-02-14T15:36:28.350Z,13.30
2019-02-14T15:38:56.862Z,13.97
2019-02-14T15:41:25.313Z,11.97
2019-02-14T15:43:53.769Z,13.70
2019-02-14T15:46:22.331Z,13.13
2019-02-14T15:48:50.814Z,13.10
2019-02-14T15:51:20.055Z,12.77
2019-02-14T15:53:48.662Z,12.83
2019-02-14T15:56:17.118Z,12.80
2019-02-14T15:58:45.575Z,12.93
2019-02-14T16:01:16.471Z,12.50
2019-02-14T16:03:44.188Z,12.43
2019-02-14T16:06:12.619Z,12.87
2019-02-14T16:08:41.067Z,12.23
2019-02-14T16:11:11.434Z,12.67
2019-02-14T16:13:39.678Z,14.20
2019-02-14T16:16:08.131Z,13.00
2019-02-14T16:18:36.582Z,12.57
2019-02-14T16:21:05.811Z,12.53
2019-02-14T16:23:35.203Z,12.87
2019-02-14T16:26:03.639Z,12.73
2019-02-14T16:28:32.098Z,12.37
2019-02-14T16:31:00.542Z,12.77
2019-02-14T16:33:28.991Z,13.40
2019-02-14T16:35:57.441Z,12.77
2019-02-14T16:38:25.900Z,12.90
2019-02-14T16:40:54.337Z,12.50
2019-02-14T16:43:22.796Z,13.30
2019-02-14T16:45:51.230Z,12.87
2019-02-14T16:48:19.686Z,12.70
2019-02-14T16:50:48.154Z,12.37
2019-02-14T16:53:16.624Z,13.13
2019-02-14T16:55:45.058Z,12.50
2019-02-14T16:58:13.509Z,13.67
2019-02-14T17:00:41.934Z,13.67
2019-02-14T17:03:10.611Z,13.40
2019-02-14T17:05:39.046Z,13.97
2019-02-14T17:08:07.502Z,13.43
2019-02-14T17:10:37.282Z,14.57
2019-02-14T17:13:05.901Z,13.60
2019-02-14T17:15:34.344Z,13.07
2019-02-14T17:18:02.796Z,13.03
2019-02-14T17:20:31.266Z,14.27
2019-02-14T17:22:59.738Z,20.33
2019-02-14T17:25:28.242Z,15.53
2019-02-14T17:27:56.678Z,20.53
2019-02-14T17:30:25.148Z,16.20
2019-02-14T17:32:53.603Z,12.90
2019-02-14T17:35:22.063Z,12.57
2019-02-14T17:37:50.507Z,12.90
2019-02-14T17:40:18.964Z,13.20
2019-02-14T17:42:47.390Z,13.03
2019-02-14T17:45:15.850Z,12.03
2019-02-14T17:47:44.278Z,12.40
2019-02-14T17:50:12.742Z,13.27
2019-02-14T17:52:41.176Z,12.10
2019-02-14T17:55:10.178Z,12.50
2019-02-14T17:57:38.606Z,12.53
2019-02-14T18:00:10.241Z,12.33
2019-02-14T18:02:38.679Z,13.03
2019-02-14T18:05:08.894Z,13.10
2019-02-14T18:07:37.389Z,13.10
2019-02-14T18:10:11.445Z,13.33
2019-02-14T18:12:39.918Z,13.43
2019-02-14T18:15:14.740Z,14.07
2019-02-14T18:17:43.175Z,13.87
2019-02-14T18:20:11.809Z,13.63
2019-02-14T18:22:40.313Z,14.43
2019-02-14T18:25:11.581Z,33.33
2019-02-14T18:27:40.006Z,23.10
2019-02-14T18:30:10.429Z,14.77
2019-02-14T18:32:38.930Z,13.20
2019-02-14T18:35:10.232Z,12.83
2019-02-14T18:37:38.678Z,12.60
2019-02-14T18:40:10.306Z,12.60
2019-02-14T18:42:41.395Z,13.80
2019-02-14T18:45:12.011Z,13.63
2019-02-14T18:47:40.525Z,13.23
2019-02-14T18:50:11.332Z,14.00
2019-02-14T18:52:39.831Z,13.20
2019-02-14T18:55:10.046Z,13.87
2019-02-14T18:57:38.495Z,13.83
2019-02-14T19:00:10.843Z,14.10
2019-02-14T19:02:39.286Z,14.13
2019-02-14T19:05:09.876Z,14.00
2019-02-14T19:07:38.308Z,13.87
2019-02-14T19:10:12.601Z,13.60
2019-02-14T19:12:41.036Z,14.03
2019-02-14T19:15:12.194Z,15.73
2019-02-14T19:17:40.764Z,16.17
2019-02-14T19:20:10.671Z,20.27
2019-02-14T19:22:40.469Z,38.47
2019-02-14T19:25:10.537Z,22.90
2019-02-14T19:27:39.061Z,24.10
2019-02-14T19:30:09.801Z,16.63
2019-02-14T19:32:38.284Z,16.83
2019-02-14T19:35:08.626Z,15.63
2019-02-14T19:37:37.249Z,14.57
2019-02-14T19:40:08.720Z,13.33
2019-02-14T19:42:37.206Z,13.43
2019-02-14T19:45:09.006Z,13.10
2019-02-14T19:47:37.517Z,12.73
2019-02-14T19:50:10.659Z,12.27
2019-02-14T19:52:39.229Z,12.50
2019-02-14T19:55:09.203Z,11.73
2019-02-14T19:57:37.675Z,10.67
2019-02-14T20:00:14.118Z,11.13
2019-02-14T20:02:42.585Z,10.93
2019-02-14T20:05:11.096Z,10.50
2019-02-14T20:07:39.609Z,11.20
2019-02-14T20:10:14.868Z,11.60
2019-02-14T20:12:43.402Z,11.33
2019-02-14T20:15:16.618Z,10.63
2019-02-14T20:17:45.127Z,11.30
2019-02-14T20:20:13.699Z,10.97
2019-02-14T20:22:42.231Z,11.73
2019-02-14T20:25:13.617Z,11.53
2019-02-14T20:27:42.069Z,11.47
2019-02-14T20:30:10.575Z,10.97
2019-02-14T20:32:39.039Z,13.90
2019-02-14T20:35:08.607Z,11.03
2019-02-14T20:37:37.079Z,10.70
2019-02-14T20:40:10.062Z,9.50
2019-02-14T20:42:38.490Z,9.43
2019-02-14T20:45:09.943Z,8.80
2019-02-14T20:47:38.437Z,9.97
2019-02-14T20:50:12.554Z,9.60
2019-02-14T20:52:41.013Z,9.67
2019-02-14T20:55:23.258Z,10.03
2019-02-14T20:57:51.734Z,9.20
2019-02-14T21:00:21.955Z,8.13
2019-02-14T21:02:50.465Z,9.23
2019-02-14T21:05:18.912Z,8.77
2019-02-14T21:07:47.351Z,9.43
2019-02-14T21:10:15.806Z,9.17
2019-02-14T21:12:44.267Z,8.33
2019-02-14T21:15:12.726Z,8.17
2019-02-14T21:17:41.156Z,8.20
2019-02-14T21:20:14.100Z,8.37
2019-02-14T21:22:42.522Z,7.93
2019-02-14T21:25:11.051Z,8.10
2019-02-14T21:27:39.494Z,8.43
2019-02-14T21:30:14.251Z,8.00
2019-02-14T21:32:42.851Z,8.23
2019-02-14T21:35:11.371Z,9.20
2019-02-14T21:37:39.872Z,8.50
2019-02-14T21:40:11.480Z,9.20
2019-02-14T21:42:39.941Z,7.80
2019-02-14T21:45:11.283Z,7.97
2019-02-14T21:47:39.760Z,8.80
2019-02-14T21:50:10.970Z,9.00
2019-02-14T21:52:39.544Z,8.43
2019-02-14T21:55:14.538Z,8.70
2019-02-14T21:57:43.090Z,8.13
2019-02-14T22:00:26.082Z,7.70
2019-02-14T22:02:54.836Z,7.50
2019-02-14T22:05:25.888Z,7.67
2019-02-14T22:07:53.590Z,7.60
2019-02-14T22:10:22.122Z,7.30
2019-02-14T22:12:50.633Z,7.47
2019-02-14T22:15:23.857Z,7.40
2019-02-14T22:17:52.301Z,8.27
2019-02-14T22:20:20.823Z,9.10
2019-02-14T22:22:49.270Z,7.80
2019-02-14T22:25:17.732Z,7.33
2019-02-14T22:27:46.651Z,7.20
2019-02-14T22:30:18.659Z,7.30
2019-02-14T22:32:47.096Z,8.23
2019-02-14T22:35:15.549Z,7.67
2019-02-14T22:37:43.979Z,7.67
2019-02-14T22:40:14.332Z,7.43
2019-02-14T22:42:47.150Z,7.37
2019-02-14T22:45:15.940Z,6.70
2019-02-14T22:47:44.839Z,7.83
2019-02-14T22:50:13.744Z,8.70
2019-02-14T22:52:42.248Z,7.47
2019-02-14T22:55:13.912Z,8.43
2019-02-14T22:57:42.360Z,7.87
2019-02-14T23:00:24.303Z,8.03
2019-02-14T23:02:52.728Z,8.40
2019-02-14T23:05:21.180Z,7.43
2019-02-14T23:07:49.622Z,7.77
2019-02-14T23:10:18.079Z,8.23
2019-02-14T23:12:55.185Z,8.70
2019-02-14T23:15:16.695Z,8.57
2019-02-14T23:17:45.144Z,8.13
2019-02-14T23:20:13.597Z,7.93
2019-02-14T23:22:42.040Z,7.83
2019-02-14T23:25:10.488Z,6.87
2019-02-14T23:27:38.940Z,7.83
2019-02-14T23:30:11.950Z,7.97
2019-02-14T23:32:40.377Z,7.67
2019-02-14T23:35:08.901Z,7.97
2019-02-14T23:37:37.330Z,8.10
2019-02-14T23:40:06.819Z,7.63
2019-02-14T23:42:35.258Z,7.70
2019-02-14T23:45:04.343Z,7.37
2019-02-14T23:47:32.783Z,7.60
2019-02-14T23:50:01.467Z,7.90
2019-02-14T23:52:29.905Z,7.30
2019-02-14T23:54:58.334Z,7.63
2019-02-14T23:57:26.785Z,7.23
2019-02-14T23:59:55.225Z,7.60
